Time;durP1;ratioP1;P1;durP2;ratioP2;P2;SDS_P1;SDS_P2;PMS_P1;PMS_P2;Temp;Humidity;BMP_temperature;BMP_pressure;BME280_temperature;BME280_humidity;BME280_pressure;Samples;Min_cycle;Max_cycle;Signal;HPM_P1;HPM_P2
2023/08/23 00:02:30;;;;;;;10.70;6.00;;;;;;;24.83;60.97;100867.78;5069774;28;20996;-70
2023/08/23 00:05:00;;;;;;;9.50;5.32;;;;;;;24.73;61.07;100860.19;5073037;28;20589;-70
2023/08/23 00:07:28;;;;;;;10.13;5.30;;;;;;;24.60;62.16;100865.84;5069612;28;20215;-70
2023/08/23 00:09:56;;;;;;;11.40;5.38;;;;;;;24.63;61.85;100869.94;5069669;28;20626;-72
2023/08/23 00:12:24;;;;;;;10.27;6.25;;;;;;;24.62;61.99;100868.31;5068758;28;20258;-69
2023/08/23 00:14:53;;;;;;;7.75;6.13;;;;;;;24.65;61.90;100868.66;5069207;28;20319;-69
2023/08/23 00:17:20;;;;;;;13.93;6.18;;;;;;;24.62;61.87;100855.59;5071672;28;20302;-70
2023/08/23 00:19:48;;;;;;;8.73;5.47;;;;;;;24.59;62.19;100856.03;5072890;28;20230;-69
2023/08/23 00:22:16;;;;;;;10.98;5.70;;;;;;;24.59;62.06;100863.34;5071130;28;20271;-69
2023/08/23 00:24:43;;;;;;;11.27;5.15;;;;;;;24.59;61.84;100863.34;5065781;28;20223;-69
2023/08/23 00:27:11;;;;;;;8.90;5.45;;;;;;;24.61;62.04;100855.81;5068215;28;20660;-69
2023/08/23 00:29:39;;;;;;;7.88;5.55;;;;;;;24.61;61.62;100856.66;5068489;28;20227;-70
2023/08/23 00:32:08;;;;;;;9.43;5.82;;;;;;;24.63;61.49;100853.69;5065020;28;20211;-69
2023/08/23 00:34:35;;;;;;;8.75;5.57;;;;;;;24.62;61.67;100862.91;5070912;28;20204;-70
2023/08/23 00:37:03;;;;;;;7.18;5.40;;;;;;;24.60;61.81;100865.84;5070711;28;20227;-70
2023/08/23 00:39:31;;;;;;;10.82;6.13;;;;;;;24.58;61.74;100867.94;5072076;28;20725;-70
2023/08/23 00:41:59;;;;;;;13.43;6.00;;;;;;;24.57;61.54;100863.56;5071544;28;20884;-70
2023/08/23 00:44:27;;;;;;;10.05;5.53;;;;;;;24.56;61.74;100869.22;5071543;28;20664;-69
2023/08/23 00:46:55;;;;;;;8.00;5.55;;;;;;;24.53;61.83;100872.41;5072962;28;20290;-71
2023/08/23 00:49:24;;;;;;;8.50;5.82;;;;;;;24.51;61.77;100872.63;5074897;28;20271;-69
2023/08/23 00:51:52;;;;;;;9.48;5.88;;;;;;;24.51;61.78;100872.63;5073683;28;20207;-70
2023/08/23 00:54:19;;;;;;;9.43;5.60;;;;;;;24.51;61.50;100866.38;5073620;28;20299;-69
2023/08/23 00:56:48;;;;;;;11.68;5.70;;;;;;;24.50;61.53;100864.72;5072778;28;20951;-70
2023/08/23 00:59:16;;;;;;;8.40;5.70;;;;;;;24.47;61.78;100866.00;5068435;28;20341;-71
2023/08/23 01:01:44;;;;;;;8.35;5.85;;;;;;;24.43;61.97;100877.56;5073261;28;20204;-69
2023/08/23 01:04:11;;;;;;;9.23;5.50;;;;;;;24.41;62.08;100872.34;5071791;28;20211;-69
2023/08/23 01:06:52;;;;;;;7.53;5.43;;;;;;;24.43;61.86;100866.72;5070108;28;20206;-69
2023/08/23 01:09:30;;;;;;;11.82;6.53;;;;;;;24.42;61.81;100859.63;5069976;28;20905;-70
2023/08/23 01:12:04;;;;;;;8.48;6.10;;;;;;;24.40;61.88;100869.88;5069991;28;20268;-69
2023/08/23 01:14:41;;;;;;;13.07;6.35;;;;;;;24.28;62.69;100880.66;5072440;28;20201;-70
2023/08/23 01:17:10;;;;;;;9.75;6.55;;;;;;;24.11;62.88;100869.56;5070023;28;20356;-69
2023/08/23 01:19:43;;;;;;;14.98;6.63;;;;;;;24.02;63.17;100870.94;5072498;28;20401;-70
2023/08/23 01:22:17;;;;;;;8.52;6.05;;;;;;;24.01;63.76;100863.88;5073895;28;20209;-70
2023/08/23 01:24:46;;;;;;;7.70;5.47;;;;;;;24.05;63.41;100862.38;5069574;28;20970;-69
2023/08/23 01:27:14;;;;;;;8.90;5.53;;;;;;;24.08;63.41;100859.22;5071574;28;20295;-69
2023/08/23 01:29:42;;;;;;;7.95;5.15;;;;;;;24.10;63.39;100859.00;5071021;28;20247;-70
2023/08/23 01:32:19;;;;;;;8.43;5.88;;;;;;;23.99;63.79;100857.84;5072285;28;20202;-70
2023/08/23 01:34:52;;;;;;;9.55;5.60;;;;;;;23.91;64.37;100858.16;5070023;28;20205;-70
2023/08/23 01:37:22;;;;;;;9.65;5.80;;;;;;;23.90;64.49;100856.50;5069961;28;20308;-70
2023/08/23 01:39:53;;;;;;;11.27;6.57;;;;;;;23.80;64.97;100859.75;5067432;28;20222;-70
2023/08/23 01:42:22;;;;;;;9.73;6.50;;;;;;;23.78;65.13;100864.53;5070694;28;20254;-69
2023/08/23 01:44:51;;;;;;;8.27;5.70;;;;;;;23.80;65.14;100869.75;5069256;28;20206;-71
2023/08/23 01:47:19;;;;;;;13.23;6.57;;;;;;;23.81;65.17;100868.69;5072563;28;20234;-69
2023/08/23 01:49:46;;;;;;;16.52;7.07;;;;;;;23.78;65.27;100872.66;5070244;28;20254;-69
2023/08/23 01:52:14;;;;;;;8.60;6.45;;;;;;;23.77;65.18;100872.88;5071927;28;20623;-71
2023/08/23 01:54:42;;;;;;;12.73;7.20;;;;;;;23.77;65.32;100872.88;5073152;28;20204;-71
2023/08/23 01:57:11;;;;;;;9.68;6.60;;;;;;;23.78;65.42;100869.13;5069525;28;20328;-69
2023/08/23 01:59:38;;;;;;;11.98;7.00;;;;;;;23.80;65.25;100865.16;5071518;28;20764;-69
2023/08/23 02:02:06;;;;;;;16.02;7.32;;;;;;;23.81;65.11;100866.00;5070182;28;20206;-71
2023/08/23 02:04:34;;;;;;;14.05;7.85;;;;;;;23.76;65.47;100863.09;5073836;28;20252;-69
2023/08/23 02:07:02;;;;;;;12.00;6.80;;;;;;;23.72;65.56;100864.63;5072581;28;20235;-70
2023/08/23 02:09:31;;;;;;;12.75;6.50;;;;;;;23.72;65.74;100861.91;5069754;28;20669;-70
2023/08/23 02:11:58;;;;;;;10.63;7.15;;;;;;;23.72;65.53;100861.91;5069903;28;20303;-70
2023/08/23 02:14:27;;;;;;;10.98;6.57;;;;;;;23.70;65.81;100859.44;5071685;28;20299;-71
2023/08/23 02:16:55;;;;;;;11.15;6.50;;;;;;;23.66;65.75;100863.63;5066458;28;20254;-69
2023/08/23 02:19:23;;;;;;;10.30;6.85;;;;;;;23.63;66.08;100864.91;5067862;28;20209;-70
2023/08/23 02:21:51;;;;;;;10.93;7.03;;;;;;;23.59;66.33;100858.28;5072379;28;20206;-68
2023/08/23 02:24:19;;;;;;;12.82;7.45;;;;;;;23.55;66.62;100854.38;5071081;28;20315;-69
2023/08/23 02:26:46;;;;;;;16.70;7.25;;;;;;;23.55;66.51;100851.69;5069998;28;20886;-70
2023/08/23 02:29:14;;;;;;;8.60;6.88;;;;;;;23.56;66.68;100864.16;5068632;28;20265;-70
2023/08/23 02:31:43;;;;;;;12.55;7.30;;;;;;;23.53;66.65;100851.06;5068766;28;20299;-69
2023/08/23 02:34:11;;;;;;;9.82;6.97;;;;;;;23.55;66.84;100846.28;5069884;28;20218;-70
2023/08/23 02:36:39;;;;;;;11.48;6.97;;;;;;;23.59;66.32;100844.75;5073185;28;20316;-69
2023/08/23 02:39:07;;;;;;;13.90;7.07;;;;;;;23.67;66.22;100845.50;5067888;28;20202;-69
2023/08/23 02:41:34;;;;;;;11.50;7.00;;;;;;;23.61;66.23;100842.66;5068129;28;20513;-69
2023/08/23 02:44:02;;;;;;;10.77;7.40;;;;;;;23.58;66.40;100840.38;5066226;28;20253;-69
2023/08/23 02:46:29;;;;;;;13.27;6.88;;;;;;;23.58;66.38;100839.56;5068032;28;20200;-70
2023/08/23 02:48:59;;;;;;;11.57;7.50;;;;;;;23.63;66.11;100839.72;5069624;28;20206;-69
2023/08/23 02:51:26;;;;;;;10.98;7.45;;;;;;;23.65;65.98;100837.63;5068478;28;20295;-69
2023/08/23 02:53:54;;;;;;;10.68;7.57;;;;;;;23.65;65.63;100834.94;5068649;28;20206;-70
2023/08/23 02:56:23;;;;;;;12.52;7.60;;;;;;;23.66;65.71;100838.47;5070861;28;20294;-71
2023/08/23 02:58:50;;;;;;;12.50;7.47;;;;;;;23.65;65.58;100839.50;5069393;28;20273;-72
2023/08/23 03:01:18;;;;;;;9.63;7.53;;;;;;;23.62;65.78;100841.59;5070664;28;20691;-71
2023/08/23 03:03:46;;;;;;;14.55;7.90;;;;;;;23.60;65.95;100845.59;5072951;28;20206;-69
2023/08/23 03:06:15;;;;;;;11.90;7.55;;;;;;;23.58;65.70;100840.38;5070440;28;20215;-70
2023/08/23 03:08:42;;;;;;;12.77;8.00;;;;;;;23.58;66.13;100848.50;5069913;28;20925;-70
2023/08/23 03:11:10;;;;;;;11.77;8.07;;;;;;;23.57;66.14;100844.13;5070580;28;20211;-69
2023/08/23 03:13:38;;;;;;;11.73;7.72;;;;;;;23.56;66.05;100839.81;5071922;28;20766;-68
2023/08/23 03:16:06;;;;;;;9.68;8.15;;;;;;;23.53;66.39;100842.94;5067752;28;20207;-68
2023/08/23 03:18:34;;;;;;;9.55;7.20;;;;;;;23.53;66.43;100839.41;5072521;28;21102;-70
2023/08/23 03:21:01;;;;;;;10.10;8.00;;;;;;;23.52;66.42;100846.69;5071170;28;20290;-69
2023/08/23 03:23:30;;;;;;;11.15;7.70;;;;;;;23.51;66.38;100845.03;5070551;28;20298;-69
2023/08/23 03:25:58;;;;;;;12.35;7.47;;;;;;;23.52;66.42;100840.47;5076813;28;20253;-69
2023/08/23 03:28:26;;;;;;;13.95;8.10;;;;;;;23.52;66.24;100844.00;5070285;28;20207;-70
2023/08/23 03:30:54;;;;;;;11.80;8.32;;;;;;;23.52;66.30;100841.28;5073563;28;20202;-69
2023/08/23 03:33:21;;;;;;;12.88;8.73;;;;;;;23.52;66.08;100848.59;5068663;28;20211;-69
2023/08/23 03:35:53;;;;;;;12.10;7.82;;;;;;;23.51;66.38;100855.88;5074397;28;20264;-69
2023/08/23 03:38:21;;;;;;;11.57;8.00;;;;;;;23.47;66.31;100860.06;5068294;28;20220;-69
2023/08/23 03:40:52;;;;;;;36.25;9.02;;;;;;;23.40;67.20;100859.28;5071576;28;20312;-70
2023/08/23 03:43:20;;;;;;;13.27;7.03;;;;;;;23.34;67.31;100854.75;5069657;28;20308;-69
2023/08/23 03:45:48;;;;;;;11.80;8.63;;;;;;;23.28;67.89;100858.38;5070060;28;20331;-68
2023/08/23 03:48:16;;;;;;;11.73;7.57;;;;;;;23.22;68.02;100859.22;5072496;28;20279;-70
2023/08/23 03:50:44;;;;;;;14.43;8.13;;;;;;;23.22;68.19;100859.22;5069341;28;21069;-70
2023/08/23 03:53:12;;;;;;;10.20;8.00;;;;;;;23.19;68.36;100846.16;5072448;28;20300;-69
2023/08/23 03:55:40;;;;;;;12.90;7.63;;;;;;;23.13;68.38;100852.47;5071212;28;20317;-69
2023/08/23 03:58:09;;;;;;;14.52;8.38;;;;;;;23.12;68.88;100842.69;5071889;28;20231;-69
2023/08/23 04:00:37;;;;;;;17.00;7.97;;;;;;;23.14;68.49;100837.88;5072028;28;20212;-71
2023/08/23 04:03:05;;;;;;;15.68;8.43;;;;;;;23.16;68.46;100839.31;5069407;28;20835;-70
2023/08/23 04:05:33;;;;;;;12.20;8.82;;;;;;;23.13;68.30;100837.03;5073504;28;20206;-69
2023/08/23 04:08:04;;;;;;;9.48;7.50;;;;;;;23.16;68.40;100835.78;5071308;28;20215;-69
2023/08/23 04:10:32;;;;;;;14.52;8.75;;;;;;;23.11;68.48;100836.47;5079263;28;20198;-68
2023/08/23 04:12:59;;;;;;;18.45;9.02;;;;;;;23.13;68.50;100836.25;5083427;28;20315;-68
2023/08/23 04:15:28;;;;;;;12.30;8.55;;;;;;;23.15;68.45;100834.13;5077975;28;20234;-68
2023/08/23 04:17:56;;;;;;;11.65;7.65;;;;;;;23.16;68.35;100838.47;5083602;28;20869;-68
2023/08/23 04:20:24;;;;;;;14.25;8.52;;;;;;;23.15;68.19;100840.34;5072344;28;20567;-68
2023/08/23 04:22:51;;;;;;;14.85;9.15;;;;;;;23.15;68.12;100839.53;5072979;28;20812;-69
2023/08/23 04:25:20;;;;;;;12.95;8.63;;;;;;;23.13;68.17;100842.44;5071539;28;20294;-69
2023/08/23 04:27:47;;;;;;;12.68;8.93;;;;;;;23.11;68.17;100846.44;5072137;28;20260;-70
2023/08/23 04:30:16;;;;;;;15.80;8.30;;;;;;;23.11;68.25;100847.28;5072152;28;20206;-70
2023/08/23 04:32:45;;;;;;;13.32;9.45;;;;;;;23.11;68.15;100851.84;5076242;28;20577;-69
2023/08/23 04:35:13;;;;;;;15.15;8.80;;;;;;;23.10;68.04;100851.03;5070632;28;20223;-69
2023/08/23 04:37:41;;;;;;;13.43;7.93;;;;;;;23.08;67.93;100855.81;5073670;28;20276;-69
2023/08/23 04:40:09;;;;;;;12.10;7.88;;;;;;;23.08;68.29;100849.59;5072877;28;20207;-68
2023/08/23 04:42:38;;;;;;;17.13;8.85;;;;;;;23.05;68.12;100847.31;5072104;28;20223;-71
2023/08/23 04:45:07;;;;;;;12.52;9.23;;;;;;;23.06;68.44;100846.25;5069787;28;20203;-70
2023/08/23 04:47:34;;;;;;;12.45;8.77;;;;;;;23.02;68.58;100845.06;5069925;28;20203;-71
2023/08/23 04:50:04;;;;;;;12.48;8.68;;;;;;;23.02;68.27;100843.19;5069796;28;20210;-70
2023/08/23 04:52:32;;;;;;;15.55;8.48;;;;;;;23.05;68.00;100847.31;5070752;28;20219;-71
2023/08/23 04:55:00;;;;;;;11.10;8.27;;;;;;;23.04;68.22;100846.50;5068942;28;20269;-70
2023/08/23 04:57:28;;;;;;;11.82;8.82;;;;;;;23.01;68.26;100838.00;5069167;28;20314;-69
2023/08/23 04:59:55;;;;;;;14.45;9.15;;;;;;;23.03;68.10;100838.63;5070737;28;21022;-70
2023/08/23 05:02:23;;;;;;;12.75;8.85;;;;;;;23.06;67.70;100840.84;5068119;28;20210;-70
2023/08/23 05:04:51;;;;;;;14.02;8.15;;;;;;;22.92;69.29;100842.03;5070795;28;20269;-69
2023/08/23 05:07:20;;;;;;;15.05;8.40;;;;;;;22.75;69.98;100847.97;5071488;28;20293;-69
2023/08/23 05:09:48;;;;;;;13.75;8.35;;;;;;;22.69;70.68;100851.50;5069342;28;20548;-70
2023/08/23 05:12:15;;;;;;;12.52;8.70;;;;;;;22.66;70.45;100857.34;5069683;28;20287;-70
2023/08/23 05:14:43;;;;;;;14.65;8.38;;;;;;;22.74;70.15;100850.84;5071764;28;20567;-70
2023/08/23 05:17:11;;;;;;;13.57;8.98;;;;;;;22.82;69.63;100850.63;5068358;28;20307;-70
2023/08/23 05:19:38;;;;;;;13.48;8.27;;;;;;;22.88;69.06;100855.97;5068406;28;21503;-69
2023/08/23 05:22:06;;;;;;;14.07;8.25;;;;;;;22.97;68.77;100853.00;5069526;28;20348;-69
2023/08/23 05:24:35;;;;;;;17.35;8.60;;;;;;;22.99;68.58;100859.84;5069952;28;20199;-70
2023/08/23 05:27:03;;;;;;;12.45;7.68;;;;;;;23.01;68.25;100857.75;5073035;28;20202;-71
2023/08/23 05:29:31;;;;;;;11.43;8.50;;;;;;;23.08;68.00;100863.09;5069326;28;20207;-70
2023/08/23 05:31:59;;;;;;;11.48;7.97;;;;;;;23.13;67.96;100866.00;5072146;28;20731;-70
2023/08/23 05:34:26;;;;;;;13.75;8.48;;;;;;;23.17;67.78;100865.31;5067796;28;20203;-71
2023/08/23 05:36:54;;;;;;;23.02;7.63;;;;;;;23.21;67.67;100865.72;5068788;28;20225;-72
2023/08/23 05:39:22;;;;;;;15.70;7.38;;;;;;;23.25;67.69;100872.31;5074529;28;20233;-74
2023/08/23 05:41:51;;;;;;;16.52;7.63;;;;;;;23.28;67.23;100871.88;5072457;28;20219;-71
2023/08/23 05:44:18;;;;;;;12.45;7.57;;;;;;;23.30;67.54;100875.22;5067837;28;20549;-64
2023/08/23 05:46:46;;;;;;;19.10;9.10;;;;;;;23.29;67.86;100867.31;5066633;28;20203;-64
2023/08/23 05:49:14;;;;;;;14.65;7.95;;;;;;;23.26;67.95;100869.41;5063764;28;20202;-65
2023/08/23 05:51:42;;;;;;;9.88;7.28;;;;;;;23.29;67.54;100870.03;5070763;28;20262;-65
2023/08/23 05:54:10;;;;;;;9.38;6.95;;;;;;;23.36;67.23;100870.78;5069750;28;20358;-64
2023/08/23 05:56:38;;;;;;;12.35;6.75;;;;;;;23.41;67.13;100870.94;5070540;28;20738;-64
2023/08/23 05:59:07;;;;;;;14.90;7.22;;;;;;;23.43;67.27;100872.38;5071096;28;20255;-65
2023/08/23 06:01:35;;;;;;;12.80;7.00;;;;;;;23.46;67.12;100880.06;5070932;28;20708;-64
2023/08/23 06:04:03;;;;;;;12.70;7.38;;;;;;;23.50;66.97;100875.88;5071918;28;20202;-66
2023/08/23 06:06:32;;;;;;;14.35;6.95;;;;;;;23.56;66.80;100885.00;5071384;28;20207;-64
2023/08/23 06:09:01;;;;;;;13.95;7.50;;;;;;;23.57;66.31;100871.22;5068010;28;20584;-64
2023/08/23 06:11:28;;;;;;;13.32;7.68;;;;;;;23.63;66.29;100883.03;5071353;28;21229;-65
2023/08/23 06:13:56;;;;;;;11.30;7.35;;;;;;;23.65;66.20;100888.25;5072762;28;20745;-65
2023/08/23 06:16:25;;;;;;;15.70;7.05;;;;;;;23.68;66.63;100899.44;5070232;28;20207;-65
2023/08/23 06:18:53;;;;;;;14.30;6.70;;;;;;;23.70;66.54;100894.63;5068571;28;20233;-65
2023/08/23 06:21:21;;;;;;;18.60;8.40;;;;;;;23.73;66.29;100890.66;5069235;28;20285;-65
2023/08/23 06:23:49;;;;;;;17.42;8.52;;;;;;;23.72;66.62;100897.13;5067611;28;20203;-64
2023/08/23 06:26:16;;;;;;;13.18;7.22;;;;;;;23.73;66.54;100885.25;5070353;28;20301;-65
2023/08/23 06:28:44;;;;;;;15.10;7.38;;;;;;;23.76;66.35;100873.94;5072173;28;20215;-63
2023/08/23 06:31:20;;;;;;;14.07;7.25;;;;;;;23.83;65.79;100890.97;5065810;28;20214;-64
2023/08/23 06:33:49;;;;;;;9.93;6.97;;;;;;;23.88;65.68;100885.69;5066581;28;20213;-64
2023/08/23 06:36:17;;;;;;;14.20;6.75;;;;;;;23.90;65.41;100883.59;5071102;28;20703;-64
2023/08/23 06:38:45;;;;;;;9.52;6.20;;;;;;;23.93;65.42;100893.94;5073138;28;20253;-65
2023/08/23 06:41:12;;;;;;;13.63;7.72;;;;;;;23.95;65.61;100889.97;5071375;28;20217;-66
2023/08/23 06:43:41;;;;;;;12.77;6.88;;;;;;;23.93;65.83;100888.53;5072160;28;20235;-64
2023/08/23 06:46:08;;;;;;;13.95;7.43;;;;;;;23.97;65.70;100893.28;5073314;28;20261;-63
2023/08/23 06:48:37;;;;;;;11.02;7.03;;;;;;;24.02;65.77;100895.31;5073033;28;20683;-64
2023/08/23 06:51:07;;;;;;;10.88;6.43;;;;;;;24.05;66.02;100894.88;5070065;28;20500;-63
2023/08/23 06:53:35;;;;;;;14.75;6.40;;;;;;;24.12;65.41;100890.19;5070585;28;20279;-62
2023/08/23 06:56:04;;;;;;;16.50;6.88;;;;;;;24.15;65.33;100891.63;5071963;28;20206;-62
2023/08/23 06:58:32;;;;;;;16.58;6.28;;;;;;;24.15;65.44;100887.03;5072987;28;20242;-62
2023/08/23 07:00:59;;;;;;;11.40;6.25;;;;;;;24.19;65.31;100884.69;5073962;28;20306;-63
2023/08/23 07:03:28;;;;;;;15.15;7.50;;;;;;;24.22;64.96;100890.53;5072014;28;20297;-64
2023/08/23 07:05:58;;;;;;;11.68;6.22;;;;;;;24.26;65.07;100891.72;5073383;28;20295;-65
2023/08/23 07:08:28;;;;;;;11.05;7.07;;;;;;;24.31;64.46;100888.31;5071082;28;20215;-66
2023/08/23 07:10:56;;;;;;;13.80;7.50;;;;;;;24.32;63.90;100896.22;5073660;28;20215;-64
2023/08/23 07:13:23;;;;;;;11.40;6.00;;;;;;;24.36;63.43;100905.53;5073537;28;20226;-65
2023/08/23 07:15:51;;;;;;;11.20;6.38;;;;;;;24.42;63.38;100905.72;5071684;28;20233;-64
2023/08/23 07:18:21;;;;;;;16.10;7.97;;;;;;;24.46;63.90;100896.88;5073942;28;20285;-64
2023/08/23 07:20:49;;;;;;;19.60;7.47;;;;;;;24.48;64.12;100897.47;5074132;28;20325;-64
2023/08/23 07:23:17;;;;;;;18.50;7.28;;;;;;;24.51;64.29;100905.16;5073505;28;20206;-64
2023/08/23 07:25:48;;;;;;;12.98;7.43;;;;;;;24.52;65.24;100900.56;5073464;28;20284;-62
2023/08/23 07:28:16;;;;;;;12.02;6.50;;;;;;;24.55;65.52;100916.38;5073724;28;20233;-64
2023/08/23 07:30:47;;;;;;;15.13;6.70;;;;;;;24.57;65.25;100915.09;5074389;28;20211;-64
2023/08/23 07:33:15;;;;;;;12.55;6.43;;;;;;;24.64;64.24;100912.28;5074334;28;20253;-63
2023/08/23 07:35:43;;;;;;;12.30;6.45;;;;;;;24.70;63.72;100917.63;5070276;28;20319;-63
2023/08/23 07:38:12;;;;;;;19.63;6.60;;;;;;;24.76;63.86;100907.72;5073041;28;20344;-66
2023/08/23 07:40:41;;;;;;;11.48;5.97;;;;;;;24.81;64.18;100910.56;5071030;28;20303;-62
2023/08/23 07:43:10;;;;;;;13.55;6.18;;;;;;;24.86;63.88;100912.59;5071451;28;20218;-63
2023/08/23 07:45:38;;;;;;;10.90;5.47;;;;;;;24.92;63.43;100917.13;5067768;28;20280;-64
2023/08/23 07:48:06;;;;;;;13.48;6.03;;;;;;;24.99;63.19;100918.69;5070090;28;20249;-63
2023/08/23 07:50:36;;;;;;;12.77;6.22;;;;;;;25.05;62.97;100912.34;5071063;28;20299;-65
2023/08/23 07:53:06;;;;;;;12.13;6.32;;;;;;;25.13;63.23;100918.50;5069560;28;20211;-64
2023/08/23 07:55:33;;;;;;;18.98;6.18;;;;;;;25.21;63.67;100927.13;5069776;28;20766;-64
2023/08/23 07:58:01;;;;;;;14.00;6.28;;;;;;;25.29;63.57;100928.66;5064320;28;20210;-63
2023/08/23 08:00:33;;;;;;;12.07;6.22;;;;;;;25.40;62.59;100925.13;5069637;28;20226;-64
2023/08/23 08:03:02;;;;;;;12.55;6.35;;;;;;;25.52;62.18;100923.25;5072237;28;20300;-63
2023/08/23 08:05:33;;;;;;;12.48;6.18;;;;;;;25.62;61.63;100923.53;5069183;28;20199;-64
2023/08/23 08:08:02;;;;;;;15.80;5.88;;;;;;;25.72;61.33;100923.75;5070042;28;20217;-64
2023/08/23 08:10:36;;;;;;;9.63;6.10;;;;;;;25.82;61.32;100918.56;5072942;28;20207;-63
2023/08/23 08:13:04;;;;;;;13.77;5.65;;;;;;;25.93;60.52;100918.78;5072382;28;20206;-64
2023/08/23 08:15:35;;;;;;;11.35;5.63;;;;;;;26.03;60.35;100914.41;5070335;28;20203;-63
2023/08/23 08:18:03;;;;;;;7.15;5.72;;;;;;;26.12;59.72;100909.44;5066667;28;20722;-65
2023/08/23 08:20:31;;;;;;;10.02;4.70;;;;;;;26.23;59.51;100914.00;5070869;28;20226;-65
2023/08/23 08:23:00;;;;;;;12.50;4.97;;;;;;;26.33;58.78;100916.13;5069432;28;20223;-64
2023/08/23 08:25:28;;;;;;;11.98;5.72;;;;;;;26.44;59.06;100921.53;5067862;28;20677;-64
2023/08/23 08:27:55;;;;;;;15.35;5.85;;;;;;;26.53;59.33;100914.63;5067614;28;20304;-64
2023/08/23 08:30:23;;;;;;;13.80;5.45;;;;;;;26.66;59.21;100915.41;5067969;28;22254;-64
2023/08/23 08:32:52;;;;;;;12.98;5.68;;;;;;;26.75;58.21;100911.22;5067789;28;20202;-63
2023/08/23 08:35:20;;;;;;;10.02;4.93;;;;;;;26.82;58.24;100910.03;5066928;28;20209;-63
2023/08/23 08:37:48;;;;;;;17.88;6.32;;;;;;;26.95;57.66;100911.63;5070247;28;20828;-64
2023/08/23 08:40:16;;;;;;;17.35;5.47;;;;;;;27.05;57.16;100911.81;5066525;28;20271;-64
2023/08/23 08:42:45;;;;;;;8.57;5.13;;;;;;;27.17;56.75;100904.41;5069748;28;20741;-65
2023/08/23 08:45:13;;;;;;;11.30;4.97;;;;;;;27.26;56.41;100916.53;5069169;28;20771;-63
2023/08/23 08:47:42;;;;;;;14.32;6.03;;;;;;;27.38;56.34;100921.88;5069572;28;20198;-63
2023/08/23 08:50:13;;;;;;;13.55;5.97;;;;;;;27.53;56.22;100913.13;5066614;28;20528;-63
2023/08/23 08:52:43;;;;;;;12.25;5.90;;;;;;;27.63;55.92;100921.47;5070363;28;20322;-62
2023/08/23 08:55:14;;;;;;;8.00;4.45;;;;;;;27.74;55.26;100926.00;5070589;28;20985;-64
2023/08/23 08:57:43;;;;;;;16.00;5.88;;;;;;;27.80;54.11;100922.28;5067600;28;20799;-63
2023/08/23 09:00:12;;;;;;;10.48;5.47;;;;;;;27.89;53.75;100926.22;5068458;28;20246;-63
2023/08/23 09:02:45;;;;;;;12.02;5.00;;;;;;;27.98;54.67;100927.44;5069310;28;20200;-66
2023/08/23 09:05:16;;;;;;;12.32;4.80;;;;;;;28.12;54.66;100925.19;5072881;28;20203;-64
2023/08/23 09:07:44;;;;;;;12.68;4.20;;;;;;;28.23;53.57;100915.25;5071048;28;20218;-63
2023/08/23 09:10:14;;;;;;;12.15;5.03;;;;;;;28.32;54.09;100905.56;5068777;28;20204;-64
2023/08/23 09:12:41;;;;;;;14.45;4.88;;;;;;;28.41;53.32;100904.81;5072299;28;20207;-64
2023/08/23 09:15:10;;;;;;;13.98;4.78;;;;;;;28.53;52.91;100904.69;5069122;28;20221;-65
2023/08/23 09:17:38;;;;;;;17.40;5.13;;;;;;;28.61;51.71;100900.69;5069734;28;20203;-63
2023/08/23 09:20:07;;;;;;;12.25;4.97;;;;;;;28.72;52.16;100897.81;5070296;28;20238;-64
2023/08/23 09:22:36;;;;;;;8.75;5.05;;;;;;;28.85;51.13;100893.06;5071297;28;20617;-64
2023/08/23 09:25:05;;;;;;;12.40;4.75;;;;;;;28.94;51.40;100891.50;5067928;28;20238;-64
2023/08/23 09:27:34;;;;;;;12.38;4.63;;;;;;;29.03;50.66;100889.91;5068970;28;20730;-65
2023/08/23 09:30:08;;;;;;;14.82;6.00;;;;;;;29.08;49.07;100888.06;5070368;28;20207;-64
2023/08/23 09:32:36;;;;;;;15.07;7.00;;;;;;;29.14;49.26;100886.19;5068365;28;20559;-63
2023/08/23 09:35:11;;;;;;;13.68;5.50;;;;;;;29.20;49.03;100882.44;5066539;28;20211;-66
2023/08/23 09:37:44;;;;;;;8.52;4.80;;;;;;;29.30;49.91;100885.22;5070985;28;20607;-63
2023/08/23 09:40:20;;;;;;;10.07;5.43;;;;;;;29.39;49.40;100888.31;5068342;28;20227;-62
2023/08/23 09:42:49;;;;;;;15.05;4.55;;;;;;;29.40;49.23;100879.88;5065884;28;20226;-63
2023/08/23 09:45:19;;;;;;;11.80;4.75;;;;;;;29.39;48.50;100880.94;5070867;28;20214;-64
2023/08/23 09:47:52;;;;;;;5.18;3.80;;;;;;;29.42;48.10;100883.16;5067176;28;20215;-63
2023/08/23 09:50:21;;;;;;;10.80;4.80;;;;;;;29.35;47.49;100882.53;5065235;28;22226;-63
2023/08/23 09:53:00;;;;;;;9.55;4.30;;;;;;;29.24;49.04;100880.81;5066252;28;20206;-63
2023/08/23 09:55:30;;;;;;;12.10;5.68;;;;;;;29.20;48.82;100880.50;5064353;28;20556;-64
2023/08/23 09:57:58;;;;;;;9.88;4.63;;;;;;;29.23;48.28;100884.63;5068789;28;20203;-63
2023/08/23 10:00:27;;;;;;;13.60;4.28;;;;;;;29.33;47.25;100890.16;5068788;28;20331;-63
2023/08/23 10:02:56;;;;;;;10.68;4.43;;;;;;;29.47;46.25;100898.75;5071286;28;20209;-64
2023/08/23 10:05:26;;;;;;;7.63;4.20;;;;;;;29.62;45.29;100893.41;5069102;28;20224;-63
2023/08/23 10:07:57;;;;;;;9.93;3.95;;;;;;;29.76;45.57;100886.38;5065648;28;20222;-63
2023/08/23 10:10:29;;;;;;;7.22;4.13;;;;;;;29.84;45.10;100882.31;5067429;28;20205;-64
2023/08/23 10:13:00;;;;;;;8.10;4.22;;;;;;;29.69;46.17;100877.59;5068569;28;20202;-63
2023/08/23 10:15:32;;;;;;;10.75;4.10;;;;;;;29.48;47.76;100886.75;5067889;28;20210;-63
2023/08/23 10:18:04;;;;;;;8.88;4.30;;;;;;;29.28;48.18;100879.22;5068764;28;20275;-64
2023/08/23 10:20:34;;;;;;;11.10;4.22;;;;;;;29.19;47.68;100881.63;5069314;28;20685;-64
2023/08/23 10:23:10;;;;;;;12.10;4.00;;;;;;;29.11;47.67;100878.53;5069112;28;20225;-64
2023/08/23 10:25:38;;;;;;;9.38;4.20;;;;;;;29.00;47.24;100876.81;5068098;28;20213;-63
2023/08/23 10:28:07;;;;;;;9.98;3.70;;;;;;;29.04;48.50;100873.28;5069490;28;20593;-64
2023/08/23 10:30:41;;;;;;;8.95;3.95;;;;;;;29.24;48.30;100880.81;5069606;28;20222;-65
2023/08/23 10:33:13;;;;;;;8.40;4.00;;;;;;;29.30;48.25;100885.22;5069024;28;20203;-64
2023/08/23 10:35:43;;;;;;;12.65;4.22;;;;;;;29.19;47.38;100883.53;5068585;28;20199;-65
2023/08/23 10:38:12;;;;;;;11.95;3.90;;;;;;;29.04;47.77;100880.66;5066325;28;20309;-64
2023/08/23 10:40:44;;;;;;;10.13;4.40;;;;;;;29.01;48.68;100876.53;5070772;28;20233;-62
2023/08/23 10:43:15;;;;;;;10.40;4.15;;;;;;;29.22;48.06;100880.25;5066427;28;20616;-65
2023/08/23 10:45:50;;;;;;;13.35;4.50;;;;;;;29.43;47.10;100871.16;5066470;28;21101;-66
2023/08/23 10:48:21;;;;;;;18.83;4.88;;;;;;;29.33;47.04;100881.16;5069457;28;20206;-63
2023/08/23 10:50:50;;;;;;;7.55;4.30;;;;;;;29.15;47.42;100869.56;5069752;28;20796;-62
2023/08/23 10:53:23;;;;;;;10.55;4.15;;;;;;;29.43;47.29;100865.69;5068953;28;20280;-64
2023/08/23 10:55:55;;;;;;;8.32;3.80;;;;;;;32.27;40.95;100862.47;5066798;28;20198;-64
2023/08/23 10:58:24;;;;;;;14.25;4.18;;;;;;;35.16;35.52;100857.31;5069925;28;20215;-63
2023/08/23 11:00:53;;;;;;;8.05;3.65;;;;;;;35.21;35.51;100856.41;5066579;28;20223;-66
2023/08/23 11:03:21;;;;;;;6.90;4.22;;;;;;;38.07;30.82;100855.81;5066434;28;20215;-64
2023/08/23 11:05:49;;;;;;;5.60;3.78;;;;;;;37.47;31.86;100859.16;5065990;28;20287;-63
2023/08/23 11:08:18;;;;;;;9.43;4.22;;;;;;;35.75;33.80;100859.28;5067862;28;20303;-64
2023/08/23 11:10:46;;;;;;;7.40;3.47;;;;;;;34.31;35.89;100857.53;5065092;28;20218;-65
2023/08/23 11:13:17;;;;;;;9.55;4.50;;;;;;;32.99;38.19;100858.94;5071241;28;20196;-63
2023/08/23 11:15:45;;;;;;;8.68;3.67;;;;;;;33.78;37.61;100857.63;5079020;28;20626;-65
2023/08/23 11:18:13;;;;;;;8.75;3.53;;;;;;;38.50;29.90;100853.06;5069758;28;20314;-66
2023/08/23 11:20:41;;;;;;;8.13;3.58;;;;;;;42.08;25.78;100844.03;5072225;28;20211;-64
2023/08/23 11:23:11;;;;;;;9.35;5.28;;;;;;;44.51;23.12;100854.41;5070893;28;21059;-63
2023/08/23 11:25:41;;;;;;;8.48;4.00;;;;;;;46.28;20.85;100844.69;5067224;28;20268;-63
2023/08/23 11:28:12;;;;;;;7.22;2.70;;;;;;;47.43;20.44;100837.94;5067380;28;20579;-64